createdAt,value
2023-03-15T00:01:44.729Z,0.20
2023-03-15T00:04:13.009Z,0.40
2023-03-15T00:06:40.736Z,0.17
2023-03-15T00:09:08.606Z,0.93
2023-03-15T00:11:36.050Z,0.38
2023-03-15T00:14:03.669Z,0.10
2023-03-15T00:16:32.315Z,0.57
2023-03-15T00:19:00.913Z,0.15
2023-03-15T00:21:28.710Z,0.68
2023-03-15T00:23:56.439Z,0.45
2023-03-15T00:26:24.049Z,0.30
2023-03-15T00:28:51.520Z,1.00
2023-03-15T00:31:21.617Z,0.47
2023-03-15T00:33:49.812Z,0.63
2023-03-15T00:36:17.184Z,0.40
2023-03-15T00:38:44.521Z,0.40
2023-03-15T00:41:15.454Z,0.35
2023-03-15T00:43:43.898Z,0.40
2023-03-15T00:46:12.257Z,0.10
2023-03-15T00:48:39.830Z,1.52
2023-03-15T00:51:22.025Z,1.40
2023-03-15T00:53:51.204Z,1.10
2023-03-15T00:56:23.661Z,0.65
2023-03-15T00:58:51.907Z,0.60
2023-03-15T01:01:23.512Z,0.22
2023-03-15T01:06:23.941Z,1.05
2023-03-15T01:08:51.636Z,0.88
2023-03-15T01:11:21.830Z,0.57
2023-03-15T01:13:49.138Z,0.32
2023-03-15T01:16:16.410Z,1.05
2023-03-15T01:18:44.439Z,0.08
2023-03-15T01:21:14.612Z,0.10
2023-03-15T01:23:42.418Z,0.43
2023-03-15T01:26:13.534Z,0.73
2023-03-15T01:28:41.074Z,0.90
2023-03-15T01:31:19.678Z,3.22
2023-03-15T01:33:47.163Z,0.10
2023-03-15T01:36:15.375Z,0.63
2023-03-15T01:38:42.925Z,0.40
2023-03-15T01:41:14.718Z,0.10
2023-03-15T01:43:42.672Z,1.60
2023-03-15T01:46:21.260Z,1.55
2023-03-15T01:49:00.853Z,0.45
2023-03-15T01:51:45.345Z,1.65
2023-03-15T01:54:21.788Z,0.38
2023-03-15T01:57:05.093Z,0.35
2023-03-15T01:59:38.843Z,0.10
2023-03-15T02:02:12.789Z,0.10
2023-03-15T02:04:52.258Z,1.10
2023-03-15T02:07:22.277Z,0.10
2023-03-15T02:10:06.840Z,0.30
2023-03-15T02:12:42.490Z,0.40
2023-03-15T02:15:10.696Z,0.20
2023-03-15T02:17:48.574Z,0.85
2023-03-15T02:20:33.849Z,1.65
2023-03-15T02:23:12.106Z,0.70
2023-03-15T02:25:57.946Z,0.43
2023-03-15T02:28:26.593Z,1.60
2023-03-15T02:31:02.512Z,0.10
2023-03-15T02:33:51.760Z,0.35
2023-03-15T02:36:27.688Z,0.10
2023-03-15T02:38:56.510Z,0.20
2023-03-15T02:41:42.695Z,0.47
2023-03-15T02:44:18.482Z,0.13
2023-03-15T02:46:51.254Z,0.25
2023-03-15T02:49:27.777Z,0.98
2023-03-15T02:51:55.426Z,0.25
2023-03-15T02:54:32.353Z,0.35
2023-03-15T02:57:01.302Z,1.98
2023-03-15T02:59:29.348Z,1.40
2023-03-15T03:01:56.753Z,1.00
2023-03-15T03:04:24.144Z,0.20
2023-03-15T03:06:51.577Z,0.10
2023-03-15T03:09:18.920Z,0.10
2023-03-15T03:11:46.347Z,0.52
2023-03-15T03:14:18.156Z,0.20
2023-03-15T03:16:51.635Z,0.57
2023-03-15T03:19:19.154Z,0.35
2023-03-15T03:21:46.497Z,0.30
2023-03-15T03:24:13.828Z,0.52
2023-03-15T03:26:41.172Z,0.73
2023-03-15T03:29:10.052Z,0.30
2023-03-15T03:31:37.385Z,0.10
2023-03-15T03:34:05.125Z,0.47
2023-03-15T03:36:34.431Z,0.10
2023-03-15T03:39:01.744Z,1.15
2023-03-15T03:41:29.004Z,0.68
2023-03-15T03:43:56.283Z,0.20
2023-03-15T03:46:23.604Z,0.10
2023-03-15T03:48:51.036Z,0.40
2023-03-15T03:51:18.429Z,0.20
2023-03-15T03:53:45.881Z,2.03
2023-03-15T03:56:13.184Z,0.10
2023-03-15T03:58:40.494Z,0.55
2023-03-15T04:01:07.802Z,0.50
2023-03-15T04:03:35.145Z,0.40
2023-03-15T04:06:02.507Z,0.20
2023-03-15T04:08:29.880Z,0.85
2023-03-15T04:10:57.803Z,0.30
2023-03-15T04:13:25.744Z,0.10
2023-03-15T04:15:53.672Z,0.10
2023-03-15T04:18:21.721Z,0.95
2023-03-15T04:20:49.400Z,0.10
2023-03-15T04:23:17.358Z,0.10
2023-03-15T04:25:51.887Z,0.10
2023-03-15T04:28:19.655Z,0.20
2023-03-15T04:30:49.093Z,0.10
2023-03-15T04:33:16.682Z,1.23
2023-03-15T04:35:44.557Z,0.17
2023-03-15T04:38:13.813Z,0.95
2023-03-15T04:40:41.157Z,0.95
2023-03-15T04:43:08.938Z,0.05
2023-03-15T04:45:37.228Z,0.47
2023-03-15T04:48:05.119Z,0.20
2023-03-15T04:50:33.092Z,0.10
2023-03-15T04:53:02.320Z,0.20
2023-03-15T04:55:30.144Z,0.40
2023-03-15T04:58:01.084Z,0.20
2023-03-15T05:00:29.459Z,0.28
2023-03-15T05:02:57.324Z,1.33
2023-03-15T05:05:25.184Z,0.10
2023-03-15T05:07:59.650Z,0.55
2023-03-15T05:10:27.258Z,0.20
2023-03-15T05:13:05.950Z,0.55
2023-03-15T05:15:33.336Z,0.17
2023-03-15T05:18:02.913Z,0.20
2023-03-15T05:20:30.259Z,0.10
2023-03-15T05:22:58.085Z,0.10
2023-03-15T05:25:25.352Z,0.20
2023-03-15T05:27:55.473Z,0.03
2023-03-15T05:30:22.934Z,0.43
2023-03-15T05:33:00.599Z,0.45
2023-03-15T05:35:28.122Z,0.85
2023-03-15T05:37:57.927Z,0.20
2023-03-15T05:40:25.957Z,1.20
2023-03-15T05:42:53.318Z,0.45
2023-03-15T05:45:20.736Z,0.45
2023-03-15T05:47:48.092Z,0.10
2023-03-15T05:50:22.933Z,0.40
2023-03-15T05:52:51.803Z,0.20
2023-03-15T05:55:19.151Z,0.25
2023-03-15T05:57:47.121Z,0.52
2023-03-15T06:00:15.206Z,0.90
2023-03-15T06:02:51.677Z,0.22
2023-03-15T06:05:21.542Z,0.20
2023-03-15T06:07:58.241Z,0.35
2023-03-15T06:10:28.803Z,0.30
2023-03-15T06:13:03.468Z,1.17
2023-03-15T06:15:31.729Z,0.10
2023-03-15T06:17:59.173Z,0.10
2023-03-15T06:20:26.772Z,0.32
2023-03-15T06:22:54.265Z,1.42
2023-03-15T06:25:27.415Z,0.30
2023-03-15T06:27:59.856Z,0.20
2023-03-15T06:30:32.942Z,0.20
2023-03-15T06:33:03.042Z,0.20
2023-03-15T06:35:30.467Z,0.22
2023-03-15T06:38:11.862Z,0.73
2023-03-15T06:40:45.647Z,0.57
2023-03-15T06:43:13.124Z,0.20
2023-03-15T06:45:40.490Z,0.20
2023-03-15T06:48:10.949Z,0.10
2023-03-15T06:50:47.634Z,0.57
2023-03-15T06:53:15.477Z,0.20
2023-03-15T06:55:42.889Z,0.28
2023-03-15T06:58:11.235Z,0.20
2023-03-15T07:00:38.533Z,0.10
2023-03-15T07:03:06.093Z,0.30
2023-03-15T07:05:33.943Z,0.77
2023-03-15T07:08:01.318Z,0.63
2023-03-15T07:10:28.846Z,0.75
2023-03-15T07:12:56.223Z,0.20
2023-03-15T07:15:23.590Z,0.13
2023-03-15T07:17:53.574Z,0.10
2023-03-15T07:20:40.673Z,0.20
2023-03-15T07:23:07.924Z,0.30
2023-03-15T07:25:48.272Z,0.10
2023-03-15T07:28:16.008Z,0.73
2023-03-15T07:30:43.309Z,0.57
2023-03-15T07:33:11.275Z,0.10
2023-03-15T07:35:38.616Z,1.40
2023-03-15T07:38:05.977Z,0.20
2023-03-15T07:40:33.488Z,0.25
2023-03-15T07:43:00.905Z,0.20
2023-03-15T07:45:28.609Z,0.32
2023-03-15T07:47:58.370Z,0.40
2023-03-15T07:50:30.650Z,0.20
2023-03-15T07:53:01.072Z,1.55
2023-03-15T07:55:29.607Z,0.20
2023-03-15T07:57:57.503Z,1.58
2023-03-15T08:00:30.723Z,0.28
2023-03-15T08:03:13.243Z,0.10
2023-03-15T08:05:44.091Z,0.38
2023-03-15T08:08:11.835Z,0.20
2023-03-15T08:10:41.236Z,0.80
2023-03-15T08:13:10.910Z,0.10
2023-03-15T08:15:41.089Z,0.13
2023-03-15T08:18:15.845Z,0.10
2023-03-15T08:20:46.085Z,0.35
2023-03-15T08:23:13.489Z,1.17
2023-03-15T08:25:44.571Z,0.47
2023-03-15T08:28:12.437Z,0.00
2023-03-15T08:30:44.495Z,0.17
2023-03-15T08:33:16.194Z,0.10
2023-03-15T08:35:43.544Z,0.10
2023-03-15T08:38:11.149Z,0.22
2023-03-15T08:40:39.830Z,0.10
2023-03-15T08:43:11.991Z,0.20
2023-03-15T08:45:56.639Z,0.88
2023-03-15T08:48:33.411Z,0.40
2023-03-15T08:51:07.084Z,0.10
2023-03-15T08:53:36.322Z,0.20
2023-03-15T08:56:09.926Z,0.25
2023-03-15T08:58:37.408Z,0.22
2023-03-15T09:01:18.451Z,0.32
2023-03-15T09:03:45.892Z,0.20
2023-03-15T09:06:15.320Z,0.10
2023-03-15T09:08:42.611Z,0.10
2023-03-15T09:11:12.065Z,0.20
2023-03-15T09:13:39.671Z,0.25
2023-03-15T09:16:07.975Z,0.13
2023-03-15T09:18:41.081Z,0.20
2023-03-15T09:21:10.404Z,0.55
2023-03-15T09:23:54.350Z,0.20
2023-03-15T09:26:28.781Z,0.10
2023-03-15T09:28:56.490Z,0.00
2023-03-15T09:31:23.999Z,0.35
2023-03-15T09:33:51.419Z,0.13
2023-03-15T09:36:18.804Z,0.10
2023-03-15T09:38:46.313Z,0.20
2023-03-15T09:45:26.793Z,0.10
2023-03-15T09:48:30.871Z,0.10
2023-03-15T09:51:42.705Z,0.20
2023-03-15T09:54:24.933Z,0.80
2023-03-15T09:56:58.009Z,0.65
2023-03-15T09:59:39.459Z,0.88
2023-03-15T10:02:36.731Z,0.90
2023-03-15T10:05:23.053Z,0.50
2023-03-15T10:07:54.511Z,0.10
2023-03-15T10:10:36.239Z,0.10
2023-03-15T10:13:13.168Z,0.38
2023-03-15T10:15:57.787Z,0.20
2023-03-15T10:19:14.868Z,0.10
2023-03-15T10:22:24.439Z,0.10
2023-03-15T10:25:21.535Z,0.30
2023-03-15T10:28:31.334Z,0.30
2023-03-15T10:31:21.594Z,0.20
2023-03-15T10:33:57.538Z,0.20
2023-03-15T10:36:25.876Z,0.22
2023-03-15T10:38:53.511Z,0.25
2023-03-15T10:41:48.479Z,0.38
2023-03-15T10:44:26.357Z,0.40
2023-03-15T10:47:04.648Z,0.10
2023-03-15T10:49:55.496Z,0.10
2023-03-15T10:52:29.930Z,0.50
2023-03-15T10:55:04.325Z,0.22
2023-03-15T10:58:11.953Z,0.10
2023-03-15T11:00:51.166Z,0.20
2023-03-15T11:03:24.556Z,0.80
2023-03-15T11:05:56.351Z,0.20
2023-03-15T11:08:38.741Z,0.75
2023-03-15T11:11:06.966Z,0.10
2023-03-15T11:13:45.018Z,0.22
2023-03-15T11:16:15.339Z,0.20
2023-03-15T11:18:59.649Z,0.35
2023-03-15T11:21:32.178Z,0.70
2023-03-15T11:24:02.038Z,0.17
2023-03-15T11:26:41.735Z,0.45
2023-03-15T11:29:32.718Z,0.43
2023-03-15T11:32:02.204Z,0.57
2023-03-15T11:35:03.526Z,0.73
2023-03-15T11:38:13.017Z,0.10
2023-03-15T11:41:03.113Z,0.30
2023-03-15T11:43:41.133Z,0.75
2023-03-15T11:46:52.933Z,0.10
2023-03-15T11:49:55.089Z,0.20
2023-03-15T11:52:26.614Z,0.20
2023-03-15T11:55:02.328Z,0.17
2023-03-15T11:57:45.718Z,0.32
2023-03-15T12:00:31.419Z,0.85
2023-03-15T12:03:26.656Z,0.20
2023-03-15T12:06:18.423Z,0.68
2023-03-15T12:08:48.545Z,0.60
2023-03-15T12:11:22.481Z,0.85
2023-03-15T12:14:12.179Z,0.15
2023-03-15T12:16:42.855Z,0.98
2023-03-15T12:19:16.106Z,0.20
2023-03-15T12:21:54.397Z,0.63
2023-03-15T12:24:30.467Z,0.47
2023-03-15T12:27:09.393Z,0.40
2023-03-15T12:29:37.311Z,0.68
2023-03-15T12:32:20.759Z,0.20
2023-03-15T12:34:55.103Z,0.32
2023-03-15T12:37:27.579Z,0.52
2023-03-15T12:40:16.891Z,0.15
2023-03-15T12:42:44.233Z,0.60
2023-03-15T12:45:17.121Z,0.25
2023-03-15T12:47:50.775Z,0.20
2023-03-15T12:50:45.714Z,0.20
2023-03-15T12:53:31.910Z,0.28
2023-03-15T12:56:35.014Z,0.10
2023-03-15T12:59:15.601Z,0.75
2023-03-15T13:01:43.405Z,0.45
2023-03-15T13:04:20.084Z,0.30
2023-03-15T13:07:20.135Z,0.85
2023-03-15T13:09:53.586Z,0.38
2023-03-15T13:12:43.476Z,0.32
2023-03-15T13:15:23.114Z,0.40
2023-03-15T13:18:03.237Z,0.40
2023-03-15T13:20:41.740Z,0.15
2023-03-15T13:23:35.526Z,0.15
2023-03-15T13:26:14.894Z,0.10
2023-03-15T13:28:54.697Z,0.38
2023-03-15T13:31:30.692Z,0.40
2023-03-15T13:34:12.302Z,0.17
2023-03-15T13:36:46.480Z,0.38
2023-03-15T13:39:21.404Z,0.85
2023-03-15T13:41:49.580Z,0.10
2023-03-15T13:44:28.473Z,0.13
2023-03-15T13:46:58.726Z,0.20
2023-03-15T13:49:33.906Z,0.10
2023-03-15T13:52:13.220Z,0.70
2023-03-15T13:54:47.190Z,0.40
2023-03-15T13:57:40.953Z,0.68
2023-03-15T14:00:25.373Z,0.10
2023-03-15T14:03:00.614Z,0.47
2023-03-15T14:05:32.250Z,0.10
2023-03-15T14:08:03.903Z,0.30
2023-03-15T14:10:33.039Z,1.10
2023-03-15T14:13:30.564Z,0.73
2023-03-15T14:16:16.796Z,0.13
2023-03-15T14:18:50.874Z,0.20
2023-03-15T14:21:28.650Z,0.30
2023-03-15T14:23:56.078Z,0.22
2023-03-15T14:26:42.116Z,0.75
2023-03-15T14:29:20.723Z,0.65
2023-03-15T14:31:50.698Z,1.33
2023-03-15T14:34:29.987Z,0.30
2023-03-15T14:37:32.590Z,0.95
2023-03-15T14:40:27.291Z,1.17
2023-03-15T14:42:58.130Z,0.75
2023-03-15T14:45:25.559Z,0.30
2023-03-15T14:48:19.333Z,0.25
2023-03-15T14:50:48.624Z,0.20
2023-03-15T14:53:22.443Z,1.15
2023-03-15T14:55:50.356Z,0.57
2023-03-15T14:58:27.177Z,0.75
2023-03-15T15:00:56.734Z,0.55
2023-03-15T15:03:45.898Z,0.30
2023-03-15T15:06:14.963Z,0.65
2023-03-15T15:08:53.163Z,0.40
2023-03-15T15:11:26.985Z,0.52
2023-03-15T15:13:54.368Z,0.52
2023-03-15T15:16:21.873Z,0.40
2023-03-15T15:18:49.441Z,0.68
2023-03-15T15:21:25.784Z,0.17
2023-03-15T15:23:58.752Z,0.75
2023-03-15T15:26:29.731Z,0.50
2023-03-15T15:29:02.852Z,0.68
2023-03-15T15:31:38.976Z,0.50
2023-03-15T15:34:06.441Z,0.13
2023-03-15T15:36:45.333Z,0.70
2023-03-15T15:39:26.962Z,0.50
2023-03-15T15:44:23.654Z,0.30
2023-03-15T15:46:51.113Z,0.50
2023-03-15T15:49:18.440Z,0.85
2023-03-15T15:51:52.189Z,0.43
2023-03-15T15:54:22.859Z,0.95
2023-03-15T15:57:02.417Z,0.30
2023-03-15T15:59:30.367Z,0.47
2023-03-15T16:02:01.601Z,1.00
2023-03-15T16:04:36.152Z,0.50
2023-03-15T16:07:06.195Z,0.20
2023-03-15T16:09:37.836Z,0.40
2023-03-15T16:12:13.823Z,0.17
2023-03-15T16:14:42.227Z,0.50
2023-03-15T16:17:22.795Z,0.32
2023-03-15T16:19:51.644Z,0.38
2023-03-15T16:22:22.143Z,0.52
2023-03-15T16:24:54.964Z,0.10
2023-03-15T16:27:24.361Z,0.25
2023-03-15T16:29:51.893Z,0.10
2023-03-15T16:32:42.776Z,0.32
2023-03-15T16:35:13.616Z,0.55
2023-03-15T16:37:42.278Z,0.25
2023-03-15T16:40:20.453Z,0.50
2023-03-15T16:42:55.263Z,0.10
2023-03-15T16:45:22.710Z,0.30
2023-03-15T16:47:50.290Z,0.68
2023-03-15T16:50:18.931Z,0.20
2023-03-15T16:52:49.473Z,0.10
2023-03-15T16:55:23.562Z,0.20
2023-03-15T16:58:19.305Z,0.30
2023-03-15T17:00:47.190Z,0.55
2023-03-15T17:03:28.468Z,0.17
2023-03-15T17:05:56.438Z,0.20
2023-03-15T17:08:24.087Z,0.40
2023-03-15T17:10:51.770Z,0.35
2023-03-15T17:13:26.622Z,0.98
2023-03-15T17:15:54.034Z,0.35
2023-03-15T17:18:26.414Z,1.17
2023-03-15T17:20:53.767Z,1.45
2023-03-15T17:23:21.487Z,0.60
2023-03-15T17:25:49.150Z,0.50
2023-03-15T17:28:16.901Z,0.40
2023-03-15T17:30:44.362Z,0.32
2023-03-15T17:33:11.805Z,1.45
2023-03-15T17:35:50.443Z,2.33
2023-03-15T17:38:19.998Z,0.50
2023-03-15T17:40:50.473Z,1.73
2023-03-15T17:43:17.932Z,2.33
2023-03-15T17:45:48.294Z,2.75
2023-03-15T17:48:16.750Z,0.70
2023-03-15T17:50:47.186Z,1.60
2023-03-15T17:53:19.766Z,0.65
2023-03-15T17:55:47.647Z,1.40
2023-03-15T17:58:26.494Z,0.90
2023-03-15T18:00:54.443Z,1.98
2023-03-15T18:03:23.322Z,1.88
2023-03-15T18:05:51.349Z,1.17
2023-03-15T18:08:20.627Z,2.78
2023-03-15T18:10:49.970Z,3.00
2023-03-15T18:13:22.066Z,1.63
2023-03-15T18:15:50.836Z,2.70
2023-03-15T18:18:22.905Z,2.70
2023-03-15T18:20:53.371Z,1.83
2023-03-15T18:23:24.077Z,2.70
2023-03-15T18:25:54.416Z,2.20
2023-03-15T18:28:21.926Z,1.70
2023-03-15T18:30:49.401Z,1.15
2023-03-15T18:33:16.798Z,1.90
2023-03-15T18:35:44.706Z,1.65
2023-03-15T18:38:12.112Z,1.73
2023-03-15T18:40:41.982Z,2.40
2023-03-15T18:43:14.535Z,1.92
2023-03-15T18:45:43.168Z,1.85
2023-03-15T18:48:10.727Z,1.08
2023-03-15T18:50:38.248Z,1.73
2023-03-15T18:53:06.343Z,1.80
2023-03-15T18:55:34.502Z,1.20
2023-03-15T18:58:02.846Z,1.70
2023-03-15T19:00:32.757Z,1.98
2023-03-15T19:03:02.599Z,1.45
2023-03-15T19:05:32.570Z,1.73
2023-03-15T19:08:00.087Z,1.00
2023-03-15T19:10:27.802Z,2.67
2023-03-15T19:12:55.157Z,0.77
2023-03-15T19:15:23.690Z,1.52
2023-03-15T19:17:53.684Z,2.92
2023-03-15T19:20:22.853Z,1.88
2023-03-15T19:22:52.026Z,1.92
2023-03-15T19:25:20.157Z,1.63
2023-03-15T19:27:57.449Z,1.73
2023-03-15T19:30:27.891Z,0.93
2023-03-15T19:32:59.702Z,0.87
2023-03-15T19:35:32.530Z,2.45
2023-03-15T19:38:04.554Z,2.28
2023-03-15T19:40:35.715Z,1.58
2023-03-15T19:43:03.041Z,1.83
2023-03-15T19:45:30.453Z,2.20
2023-03-15T19:47:57.840Z,1.45
2023-03-15T19:50:25.316Z,1.98
2023-03-15T19:52:52.615Z,3.47
2023-03-15T19:55:20.775Z,2.53
2023-03-15T19:57:50.176Z,2.20
2023-03-15T20:00:19.718Z,2.55
2023-03-15T20:02:47.798Z,3.35
2023-03-15T20:05:21.121Z,2.05
2023-03-15T20:07:49.504Z,2.15
2023-03-15T20:10:18.139Z,3.53
2023-03-15T20:12:46.764Z,2.40
2023-03-15T20:15:19.206Z,2.15
2023-03-15T20:17:46.754Z,4.47
2023-03-15T20:20:17.184Z,1.95
2023-03-15T20:22:46.290Z,1.08
2023-03-15T20:25:19.515Z,2.25
2023-03-15T20:28:13.440Z,2.90
2023-03-15T20:30:43.268Z,3.13
2023-03-15T20:33:11.508Z,2.50
2023-03-15T20:35:39.094Z,3.70
2023-03-15T20:38:06.416Z,2.40
2023-03-15T20:40:37.338Z,2.40
2023-03-15T20:43:06.775Z,2.40
2023-03-15T20:45:34.922Z,3.13
2023-03-15T20:48:07.015Z,3.75
2023-03-15T20:50:37.866Z,4.38
2023-03-15T20:55:35.332Z,2.35
2023-03-15T20:58:04.624Z,2.88
2023-03-15T21:00:33.457Z,2.17
2023-03-15T21:03:05.789Z,1.10
2023-03-15T21:05:36.110Z,2.70
2023-03-15T21:08:09.234Z,2.78
2023-03-15T21:10:37.693Z,1.00
2023-03-15T21:13:05.096Z,3.10
2023-03-15T21:15:48.258Z,2.40
2023-03-15T21:18:17.246Z,3.00
2023-03-15T21:20:46.436Z,1.42
2023-03-15T21:23:16.574Z,1.48
2023-03-15T21:25:43.834Z,1.27
2023-03-15T21:28:11.143Z,1.08
2023-03-15T21:30:41.341Z,1.20
2023-03-15T21:33:11.727Z,0.88
2023-03-15T21:35:39.235Z,1.05
2023-03-15T21:38:06.566Z,1.15
2023-03-15T21:40:34.036Z,0.60
2023-03-15T21:43:01.457Z,1.15
2023-03-15T21:45:29.095Z,1.55
2023-03-15T21:47:56.477Z,0.45
2023-03-15T21:50:24.095Z,0.70
2023-03-15T21:52:54.983Z,1.00
2023-03-15T21:55:22.608Z,1.63
2023-03-15T21:57:50.023Z,1.27
2023-03-15T22:00:18.024Z,1.13
2023-03-15T22:02:51.065Z,0.68
2023-03-15T22:05:19.065Z,1.40
2023-03-15T22:07:46.359Z,0.60
2023-03-15T22:10:13.920Z,1.23
2023-03-15T22:12:47.600Z,0.70
2023-03-15T22:15:14.936Z,1.08
2023-03-15T22:17:52.590Z,1.05
2023-03-15T22:20:54.592Z,1.80
2023-03-15T22:23:25.105Z,1.27
2023-03-15T22:25:52.947Z,0.80
2023-03-15T22:28:21.098Z,1.88
2023-03-15T22:30:49.863Z,2.25
2023-03-15T22:33:18.409Z,1.73
2023-03-15T22:35:45.957Z,0.45
2023-03-15T22:38:13.429Z,0.47
2023-03-15T22:40:41.175Z,3.50
2023-03-15T22:43:09.143Z,1.20
2023-03-15T22:45:37.362Z,1.90
2023-03-15T22:48:07.152Z,1.02
2023-03-15T22:50:34.701Z,0.63
2023-03-15T22:53:08.479Z,1.00
2023-03-15T22:55:36.498Z,1.05
2023-03-15T22:58:03.835Z,0.95
2023-03-15T23:00:32.017Z,1.92
2023-03-15T23:03:05.626Z,0.52
2023-03-15T23:05:35.168Z,1.15
2023-03-15T23:08:17.787Z,0.98
2023-03-15T23:10:45.408Z,1.25
2023-03-15T23:13:12.694Z,1.05
2023-03-15T23:15:41.787Z,0.65
2023-03-15T23:18:09.514Z,1.58
2023-03-15T23:20:36.984Z,1.48
2023-03-15T23:23:04.429Z,1.30
2023-03-15T23:25:32.345Z,1.00
2023-03-15T23:27:59.638Z,0.63
2023-03-15T23:30:27.190Z,0.77
2023-03-15T23:32:54.829Z,0.40
2023-03-15T23:35:22.332Z,0.88
2023-03-15T23:37:49.763Z,0.55
2023-03-15T23:40:17.217Z,0.55
2023-03-15T23:42:45.091Z,0.47
2023-03-15T23:45:14.727Z,0.73
2023-03-15T23:47:42.511Z,0.30
2023-03-15T23:50:10.747Z,1.25
2023-03-15T23:52:37.966Z,1.35
2023-03-15T23:55:14.326Z,0.55
2023-03-15T23:57:41.441Z,0.95
